createdAt,value
2023-08-23T00:01:41.468Z,79.03
2023-08-23T00:04:09.653Z,79.07
2023-08-23T00:06:37.912Z,79.23
2023-08-23T00:09:06.848Z,79.35
2023-08-23T00:11:35.000Z,79.42
2023-08-23T00:14:04.164Z,79.42
2023-08-23T00:16:32.497Z,79.59
2023-08-23T00:19:00.826Z,79.66
2023-08-23T00:21:31.665Z,79.67
2023-08-23T00:23:59.859Z,79.77
2023-08-23T00:26:28.113Z,79.88
2023-08-23T00:28:56.481Z,79.94
2023-08-23T00:31:24.561Z,79.79
2023-08-23T00:33:52.665Z,79.87
2023-08-23T00:36:20.694Z,79.83
2023-08-23T00:38:48.881Z,79.80
2023-08-23T00:41:17.153Z,80.02
2023-08-23T00:43:45.221Z,79.80
2023-08-23T00:46:15.085Z,79.67
2023-08-23T00:48:44.947Z,79.74
2023-08-23T00:51:15.262Z,79.72
2023-08-23T00:53:43.479Z,79.61
2023-08-23T00:56:13.062Z,79.57
2023-08-23T00:58:41.474Z,79.64
2023-08-23T01:01:09.701Z,79.72
2023-08-23T01:03:38.181Z,79.74
2023-08-23T01:06:27.648Z,79.79
2023-08-23T01:09:25.856Z,79.79
2023-08-23T01:12:20.208Z,79.95
2023-08-23T01:14:54.374Z,80.23
2023-08-23T01:17:23.927Z,80.41
2023-08-23T01:19:53.408Z,80.39
2023-08-23T01:22:24.791Z,80.44
2023-08-23T01:24:54.698Z,80.39
2023-08-23T01:27:22.870Z,80.28
2023-08-23T01:29:50.964Z,80.24
2023-08-23T01:32:32.543Z,80.13
2023-08-23T01:35:24.050Z,80.15
2023-08-23T01:37:56.213Z,80.27
2023-08-23T01:40:25.144Z,80.47
2023-08-23T01:42:54.909Z,80.47
2023-08-23T01:45:22.980Z,80.59
2023-08-23T01:47:51.618Z,80.59
2023-08-23T01:50:19.849Z,80.65
2023-08-23T01:52:47.962Z,80.81
2023-08-23T01:55:19.768Z,80.76
2023-08-23T01:57:48.735Z,80.57
2023-08-23T02:00:17.346Z,80.53
2023-08-23T02:02:45.557Z,80.56
2023-08-23T02:05:13.857Z,80.72
2023-08-23T02:07:42.067Z,80.92
2023-08-23T02:10:10.450Z,81.03
2023-08-23T02:12:38.545Z,81.08
2023-08-23T02:15:07.502Z,81.11
2023-08-23T02:17:35.596Z,81.14
2023-08-23T02:20:04.827Z,81.17
2023-08-23T02:22:33.147Z,81.11
2023-08-23T02:25:01.331Z,81.11
2023-08-23T02:27:29.589Z,80.95
2023-08-23T02:29:58.077Z,81.05
2023-08-23T02:32:26.594Z,81.01
2023-08-23T02:34:54.838Z,81.19
2023-08-23T02:37:22.843Z,81.30
2023-08-23T02:39:50.828Z,81.27
2023-08-23T02:42:18.843Z,81.49
2023-08-23T02:44:46.922Z,81.58
2023-08-23T02:47:15.187Z,81.65
2023-08-23T02:49:44.179Z,81.90
2023-08-23T02:52:12.300Z,82.24
2023-08-23T02:54:40.931Z,82.30
2023-08-23T02:57:09.124Z,82.39
2023-08-23T02:59:37.292Z,82.53
2023-08-23T03:02:05.670Z,82.43
2023-08-23T03:04:34.036Z,82.30
2023-08-23T03:07:01.988Z,82.44
2023-08-23T03:09:30.335Z,82.37
2023-08-23T03:11:59.599Z,82.31
2023-08-23T03:14:27.746Z,82.26
2023-08-23T03:16:56.039Z,82.18
2023-08-23T03:19:24.215Z,82.09
2023-08-23T03:21:52.326Z,82.14
2023-08-23T03:24:20.550Z,82.32
2023-08-23T03:26:49.230Z,82.39
2023-08-23T03:29:18.425Z,82.45
2023-08-23T03:31:47.427Z,82.38
2023-08-23T03:34:17.125Z,82.44
2023-08-23T03:36:45.347Z,82.65
2023-08-23T03:39:13.481Z,82.65
2023-08-23T03:41:41.645Z,82.66
2023-08-23T03:44:09.819Z,82.62
2023-08-23T03:46:38.076Z,82.61
2023-08-23T03:49:06.268Z,82.58
2023-08-23T03:51:34.462Z,82.66
2023-08-23T03:54:02.932Z,82.58
2023-08-23T03:56:32.215Z,82.57
2023-08-23T03:59:00.904Z,82.46
2023-08-23T04:01:29.136Z,82.51
2023-08-23T04:03:57.511Z,82.73
2023-08-23T04:06:25.831Z,82.70
2023-08-23T04:08:53.907Z,82.62
2023-08-23T04:11:21.975Z,82.60
2023-08-23T04:13:50.063Z,82.69
2023-08-23T04:16:18.249Z,82.57
2023-08-23T04:18:46.530Z,82.41
2023-08-23T04:21:14.672Z,82.25
2023-08-23T04:23:42.985Z,82.12
2023-08-23T04:26:11.215Z,81.93
2023-08-23T04:28:39.292Z,81.62
2023-08-23T04:31:07.358Z,81.57
2023-08-23T04:33:45.648Z,81.55
2023-08-23T04:36:13.839Z,81.60
2023-08-23T04:38:42.024Z,81.69
2023-08-23T04:41:10.597Z,81.87
2023-08-23T04:43:38.763Z,81.74
2023-08-23T04:46:08.574Z,81.67
2023-08-23T04:48:37.189Z,81.41
2023-08-23T04:51:10.326Z,81.23
2023-08-23T04:53:39.109Z,80.54
2023-08-23T04:56:08.048Z,78.82
2023-08-23T04:58:36.353Z,76.19
2023-08-23T05:01:05.975Z,73.13
2023-08-23T05:03:36.265Z,69.82
2023-08-23T05:06:04.512Z,66.89
2023-08-23T05:08:35.441Z,64.18
2023-08-23T05:11:11.340Z,62.92
2023-08-23T05:13:39.570Z,62.10
2023-08-23T05:16:07.840Z,61.87
2023-08-23T05:18:36.326Z,61.39
2023-08-23T05:21:04.857Z,61.04
2023-08-23T05:23:33.089Z,60.57
2023-08-23T05:26:04.042Z,60.44
2023-08-23T05:28:33.903Z,59.09
2023-08-23T05:31:04.412Z,58.11
2023-08-23T05:33:34.116Z,56.67
2023-08-23T05:36:04.695Z,55.21
2023-08-23T05:38:32.977Z,52.87
2023-08-23T05:41:02.345Z,50.72
2023-08-23T05:43:30.402Z,49.56
2023-08-23T05:45:58.939Z,48.50
2023-08-23T05:48:27.446Z,47.95
2023-08-23T05:50:55.707Z,47.93
2023-08-23T05:53:23.922Z,48.33
2023-08-23T05:55:52.281Z,49.19
2023-08-23T05:58:20.410Z,50.52
2023-08-23T06:00:49.837Z,50.95
2023-08-23T06:03:18.461Z,51.39
2023-08-23T06:05:47.127Z,51.93
2023-08-23T06:08:15.344Z,52.15
2023-08-23T06:10:43.333Z,51.67
2023-08-23T06:13:11.336Z,52.49
2023-08-23T06:15:39.475Z,52.67
2023-08-23T06:18:07.663Z,53.22
2023-08-23T06:20:35.752Z,53.00
2023-08-23T06:23:04.206Z,52.55
2023-08-23T06:25:32.347Z,51.05
2023-08-23T06:28:00.559Z,50.25
2023-08-23T06:30:28.736Z,49.46
2023-08-23T06:32:57.423Z,49.53
2023-08-23T06:35:27.670Z,50.07
2023-08-23T06:37:55.875Z,50.33
2023-08-23T06:40:24.134Z,50.25
2023-08-23T06:42:52.333Z,50.63
2023-08-23T06:45:20.348Z,51.41
2023-08-23T06:47:48.871Z,51.75
2023-08-23T06:50:17.394Z,52.48
2023-08-23T06:52:46.207Z,52.89
2023-08-23T06:55:14.526Z,53.12
2023-08-23T06:57:42.646Z,53.34
2023-08-23T07:00:11.621Z,54.44
2023-08-23T07:02:40.140Z,55.16
2023-08-23T07:05:09.616Z,55.76
2023-08-23T07:07:37.672Z,55.90
2023-08-23T07:10:18.029Z,56.08
2023-08-23T07:12:54.255Z,56.28
2023-08-23T07:15:22.538Z,56.19
2023-08-23T07:17:50.899Z,57.07
2023-08-23T07:20:19.399Z,57.10
2023-08-23T07:22:47.569Z,57.31
2023-08-23T07:25:15.844Z,57.48
2023-08-23T07:27:44.344Z,57.17
2023-08-23T07:30:13.589Z,57.20
2023-08-23T07:32:41.798Z,57.38
2023-08-23T07:35:10.711Z,57.91
2023-08-23T07:37:39.705Z,57.15
2023-08-23T07:40:10.874Z,57.47
2023-08-23T07:42:39.397Z,56.66
2023-08-23T07:45:09.115Z,57.08
2023-08-23T07:47:37.844Z,57.11
2023-08-23T07:50:07.300Z,57.60
2023-08-23T07:52:36.923Z,57.42
2023-08-23T07:55:06.570Z,57.70
2023-08-23T07:57:34.890Z,57.09
2023-08-23T08:00:03.396Z,57.21
2023-08-23T08:02:34.700Z,57.45
2023-08-23T08:05:03.216Z,56.76
2023-08-23T08:08:01.376Z,57.04
2023-08-23T08:10:21.371Z,57.53
2023-08-23T08:12:49.746Z,56.94
2023-08-23T08:15:17.932Z,56.76
2023-08-23T08:17:46.523Z,56.63
2023-08-23T08:20:15.068Z,55.80
2023-08-23T08:22:43.654Z,55.11
2023-08-23T08:25:14.129Z,54.27
2023-08-23T08:27:43.044Z,53.86
2023-08-23T08:30:11.866Z,53.04
2023-08-23T08:32:41.985Z,52.26
2023-08-23T08:35:10.848Z,53.10
2023-08-23T08:37:39.145Z,52.51
2023-08-23T08:40:09.034Z,51.71
2023-08-23T08:42:37.742Z,50.79
2023-08-23T08:45:07.433Z,51.28
2023-08-23T08:47:35.852Z,50.62
2023-08-23T08:50:04.512Z,48.85
2023-08-23T08:52:32.847Z,48.94
2023-08-23T08:55:02.424Z,48.78
2023-08-23T08:57:33.132Z,48.91
2023-08-23T09:00:02.419Z,48.61
2023-08-23T09:02:32.844Z,48.13
2023-08-23T09:05:02.957Z,47.88
2023-08-23T09:07:31.659Z,47.45
2023-08-23T09:09:59.792Z,46.75
2023-08-23T09:12:27.824Z,45.20
2023-08-23T09:14:56.180Z,44.78
2023-08-23T09:17:24.803Z,46.09
2023-08-23T09:19:53.160Z,45.74
2023-08-23T09:22:22.897Z,44.78
2023-08-23T09:24:51.247Z,43.61
2023-08-23T09:27:36.785Z,43.21
2023-08-23T09:30:07.493Z,42.72
2023-08-23T09:32:36.984Z,42.22
2023-08-23T09:35:15.874Z,42.30
2023-08-23T09:37:46.242Z,42.28
2023-08-23T09:40:19.173Z,41.91
2023-08-23T09:42:48.110Z,41.81
2023-08-23T09:45:21.758Z,41.00
2023-08-23T09:47:56.510Z,39.67
2023-08-23T09:50:26.013Z,40.00
2023-08-23T09:53:11.686Z,40.46
2023-08-23T09:55:40.782Z,41.02
2023-08-23T09:58:09.932Z,40.90
2023-08-23T10:00:39.151Z,41.29
2023-08-23T10:03:08.898Z,40.76
2023-08-23T10:05:37.508Z,39.94
2023-08-23T10:08:05.655Z,40.23
2023-08-23T10:10:34.319Z,39.45
2023-08-23T10:13:06.757Z,39.60
2023-08-23T10:15:38.973Z,39.16
2023-08-23T10:18:13.055Z,38.94
2023-08-23T10:20:42.678Z,38.99
2023-08-23T10:23:16.905Z,39.12
2023-08-23T10:25:46.392Z,38.83
2023-08-23T10:28:17.633Z,39.51
2023-08-23T10:30:52.628Z,39.77
2023-08-23T10:33:22.405Z,39.80
2023-08-23T10:35:50.540Z,40.19
2023-08-23T10:38:18.582Z,40.30
2023-08-23T10:40:48.812Z,40.07
2023-08-23T10:43:21.646Z,39.26
2023-08-23T10:46:10.321Z,38.72
2023-08-23T10:48:40.562Z,38.51
2023-08-23T10:51:08.759Z,38.68
2023-08-23T10:53:36.805Z,39.27
2023-08-23T10:56:05.112Z,39.40
2023-08-23T10:58:34.454Z,40.33
2023-08-23T11:01:03.633Z,40.43
2023-08-23T11:03:33.511Z,40.52
2023-08-23T11:06:02.656Z,40.44
2023-08-23T11:08:31.220Z,40.57
2023-08-23T11:10:59.676Z,41.00
2023-08-23T11:13:27.742Z,40.78
2023-08-23T11:15:56.790Z,40.74
2023-08-23T11:18:25.455Z,40.73
2023-08-23T11:20:54.412Z,40.05
2023-08-23T11:23:22.396Z,41.50
2023-08-23T11:25:50.424Z,41.86
2023-08-23T11:28:20.803Z,41.50
2023-08-23T11:30:50.781Z,41.86
2023-08-23T11:33:19.128Z,42.17
2023-08-23T11:35:47.293Z,42.36
2023-08-23T11:38:15.427Z,42.31
2023-08-23T11:40:48.469Z,42.28
2023-08-23T11:43:22.853Z,42.47
2023-08-23T11:45:53.938Z,42.39
2023-08-23T11:48:24.129Z,42.97
2023-08-23T11:50:53.343Z,42.88
2023-08-23T11:53:21.360Z,42.85
2023-08-23T11:55:51.351Z,43.19
2023-08-23T11:58:19.490Z,42.87
2023-08-23T12:00:48.837Z,42.92
2023-08-23T12:03:17.797Z,42.60
2023-08-23T12:05:46.305Z,42.27
2023-08-23T12:08:14.694Z,41.96
2023-08-23T12:10:43.181Z,42.34
2023-08-23T12:13:13.681Z,42.63
2023-08-23T12:15:41.926Z,42.52
2023-08-23T12:18:10.153Z,42.35
2023-08-23T12:20:38.427Z,42.06
2023-08-23T12:23:06.700Z,41.93
2023-08-23T12:25:34.805Z,42.06
2023-08-23T12:28:02.929Z,42.10
2023-08-23T12:30:31.780Z,41.86
2023-08-23T12:32:59.862Z,42.20
2023-08-23T12:35:27.944Z,42.37
2023-08-23T12:37:56.036Z,42.73
2023-08-23T12:40:24.106Z,42.87
2023-08-23T12:42:53.298Z,42.72
2023-08-23T12:45:21.834Z,42.04
2023-08-23T12:47:50.338Z,42.36
2023-08-23T12:50:19.050Z,41.96
2023-08-23T12:52:47.234Z,41.95
2023-08-23T12:55:15.437Z,42.09
2023-08-23T12:57:43.874Z,42.04
2023-08-23T13:00:29.090Z,41.89
2023-08-23T13:02:58.798Z,42.26
2023-08-23T13:05:27.989Z,42.29
2023-08-23T13:07:56.125Z,42.52
2023-08-23T13:10:24.297Z,42.69
2023-08-23T13:12:52.571Z,42.28
2023-08-23T13:15:21.060Z,42.06
2023-08-23T13:17:49.666Z,42.13
2023-08-23T13:20:18.151Z,42.57
2023-08-23T13:22:46.836Z,42.97
2023-08-23T13:25:15.078Z,42.53
2023-08-23T13:27:43.246Z,42.23
2023-08-23T13:30:12.292Z,42.31
2023-08-23T13:32:40.619Z,42.40
2023-08-23T13:35:09.301Z,42.42
2023-08-23T13:37:37.592Z,42.43
2023-08-23T13:40:07.472Z,42.37
2023-08-23T13:42:37.264Z,42.42
2023-08-23T13:45:08.876Z,42.13
2023-08-23T13:47:38.211Z,42.37
2023-08-23T13:50:07.613Z,42.35
2023-08-23T13:52:35.935Z,41.96
2023-08-23T13:55:05.376Z,41.65
2023-08-23T13:57:33.623Z,41.77
2023-08-23T14:00:01.749Z,42.35
2023-08-23T14:02:29.977Z,43.21
2023-08-23T14:04:58.216Z,43.14
2023-08-23T14:07:27.062Z,42.83
2023-08-23T14:09:55.289Z,42.21
2023-08-23T14:12:23.469Z,42.19
2023-08-23T14:14:51.633Z,42.51
2023-08-23T14:17:19.914Z,42.52
2023-08-23T14:19:49.969Z,42.79
2023-08-23T14:22:18.392Z,43.08
2023-08-23T14:24:46.417Z,42.73
2023-08-23T14:27:15.573Z,42.50
2023-08-23T14:29:43.743Z,42.58
2023-08-23T14:32:12.858Z,43.58
2023-08-23T14:34:40.913Z,44.36
2023-08-23T14:37:09.085Z,45.00
2023-08-23T14:39:37.313Z,45.47
2023-08-23T14:42:05.598Z,45.56
2023-08-23T14:44:34.416Z,45.79
2023-08-23T14:47:02.603Z,46.30
2023-08-23T14:49:30.862Z,46.58
2023-08-23T14:51:59.039Z,46.67
2023-08-23T14:54:28.337Z,46.47
2023-08-23T14:56:56.408Z,46.54
2023-08-23T14:59:24.597Z,46.90
2023-08-23T15:01:52.857Z,47.18
2023-08-23T15:04:21.766Z,47.13
2023-08-23T15:06:49.830Z,47.21
2023-08-23T15:09:18.714Z,46.84
2023-08-23T15:11:46.916Z,47.25
2023-08-23T15:14:15.049Z,47.26
2023-08-23T15:16:43.164Z,47.45
2023-08-23T15:19:11.904Z,47.57
2023-08-23T15:21:40.079Z,47.70
2023-08-23T15:24:08.119Z,47.54
2023-08-23T15:26:36.230Z,47.57
2023-08-23T15:29:05.733Z,47.83
2023-08-23T15:31:33.935Z,48.15
2023-08-23T15:34:02.537Z,48.21
2023-08-23T15:36:32.303Z,48.43
2023-08-23T15:39:04.464Z,48.84
2023-08-23T15:41:32.595Z,49.22
2023-08-23T15:44:00.921Z,48.95
2023-08-23T15:46:29.515Z,49.38
2023-08-23T15:48:57.574Z,49.65
2023-08-23T15:51:25.837Z,49.88
2023-08-23T15:53:54.008Z,49.52
2023-08-23T15:56:22.091Z,49.29
2023-08-23T15:58:50.253Z,49.52
2023-08-23T16:01:18.762Z,49.98
2023-08-23T16:03:46.947Z,50.24
2023-08-23T16:06:14.976Z,50.73
2023-08-23T16:08:43.160Z,50.67
2023-08-23T16:11:11.215Z,50.54
2023-08-23T16:13:39.609Z,50.60
2023-08-23T16:16:07.746Z,50.83
2023-08-23T16:18:36.166Z,50.90
2023-08-23T16:21:04.469Z,50.98
2023-08-23T16:23:33.010Z,51.19
2023-08-23T16:26:03.394Z,51.26
2023-08-23T16:28:31.705Z,51.29
2023-08-23T16:30:59.789Z,51.50
2023-08-23T16:33:27.952Z,51.93
2023-08-23T16:35:56.263Z,52.22
2023-08-23T16:38:24.350Z,52.33
2023-08-23T16:40:52.371Z,52.74
2023-08-23T16:43:20.636Z,52.99
2023-08-23T16:45:48.864Z,53.08
2023-08-23T16:48:17.116Z,53.14
2023-08-23T16:50:45.258Z,53.36
2023-08-23T16:53:13.680Z,53.66
2023-08-23T16:55:41.809Z,53.84
2023-08-23T16:58:09.981Z,54.29
2023-08-23T17:00:38.206Z,54.54
2023-08-23T17:03:06.342Z,55.00
2023-08-23T17:05:35.387Z,55.26
2023-08-23T17:08:04.441Z,55.14
2023-08-23T17:10:33.269Z,55.43
2023-08-23T17:13:03.122Z,55.64
2023-08-23T17:15:31.784Z,55.84
2023-08-23T17:18:00.015Z,56.01
2023-08-23T17:20:28.286Z,56.29
2023-08-23T17:22:58.904Z,56.58
2023-08-23T17:25:27.866Z,56.88
2023-08-23T17:28:00.048Z,57.05
2023-08-23T17:30:29.956Z,57.11
2023-08-23T17:32:58.111Z,57.13
2023-08-23T17:35:26.401Z,57.21
2023-08-23T17:37:54.878Z,57.20
2023-08-23T17:40:23.167Z,57.58
2023-08-23T17:42:51.271Z,57.65
2023-08-23T17:45:19.811Z,57.82
2023-08-23T17:47:47.890Z,58.00
2023-08-23T17:50:16.376Z,58.12
2023-08-23T17:52:44.428Z,58.29
2023-08-23T17:55:13.424Z,58.21
2023-08-23T17:57:41.603Z,58.43
2023-08-23T18:00:10.956Z,58.50
2023-08-23T18:02:42.910Z,58.77
2023-08-23T18:05:11.273Z,58.85
2023-08-23T18:07:39.916Z,58.99
2023-08-23T18:10:09.540Z,59.18
2023-08-23T18:12:37.739Z,59.38
2023-08-23T18:15:06.782Z,59.61
2023-08-23T18:17:34.969Z,59.88
2023-08-23T18:20:03.174Z,60.16
2023-08-23T18:22:31.309Z,60.35
2023-08-23T18:24:59.376Z,60.38
2023-08-23T18:27:27.392Z,60.30
2023-08-23T18:29:55.521Z,60.52
2023-08-23T18:32:23.733Z,60.37
2023-08-23T18:34:51.866Z,60.30
2023-08-23T18:37:20.034Z,60.49
2023-08-23T18:39:48.222Z,60.38
2023-08-23T18:42:16.258Z,60.29
2023-08-23T18:44:44.349Z,60.27
2023-08-23T18:47:12.422Z,60.23
2023-08-23T18:49:42.334Z,60.33
2023-08-23T18:52:10.434Z,59.97
2023-08-23T18:54:38.632Z,60.01
2023-08-23T18:57:08.834Z,60.09
2023-08-23T18:59:38.329Z,60.15
2023-08-23T19:02:06.722Z,60.45
2023-08-23T19:04:34.954Z,60.73
2023-08-23T19:07:03.135Z,60.80
2023-08-23T19:09:31.199Z,61.06
2023-08-23T19:11:59.267Z,60.78
2023-08-23T19:14:27.499Z,60.25
2023-08-23T19:16:55.444Z,60.16
2023-08-23T19:19:23.644Z,60.45
2023-08-23T19:21:56.925Z,60.41
2023-08-23T19:24:26.081Z,60.36
2023-08-23T19:26:54.142Z,60.79
2023-08-23T19:29:22.827Z,60.39
2023-08-23T19:32:05.704Z,60.52
2023-08-23T19:34:34.698Z,61.15
2023-08-23T19:37:04.016Z,61.09
2023-08-23T19:39:33.540Z,60.45
2023-08-23T19:42:01.624Z,60.86
2023-08-23T19:44:29.789Z,60.75
2023-08-23T19:46:57.857Z,60.97
2023-08-23T19:49:26.433Z,60.90
2023-08-23T19:51:54.636Z,60.63
2023-08-23T19:54:22.687Z,60.75
2023-08-23T19:56:50.807Z,60.91
2023-08-23T19:59:18.924Z,61.04
2023-08-23T20:01:49.313Z,61.13
2023-08-23T20:04:17.629Z,60.92
2023-08-23T20:06:46.141Z,60.73
2023-08-23T20:09:14.278Z,60.72
2023-08-23T20:11:43.370Z,60.76
2023-08-23T20:14:11.443Z,60.65
2023-08-23T20:16:39.513Z,60.56
2023-08-23T20:19:07.522Z,60.48
2023-08-23T20:21:35.665Z,60.66
2023-08-23T20:24:03.983Z,60.47
2023-08-23T20:26:32.625Z,60.28
2023-08-23T20:29:02.013Z,60.04
2023-08-23T20:31:30.116Z,60.05
2023-08-23T20:33:58.378Z,60.19
2023-08-23T20:36:27.452Z,60.17
2023-08-23T20:38:55.680Z,60.43
2023-08-23T20:41:23.801Z,60.21
2023-08-23T20:43:53.912Z,59.73
2023-08-23T20:46:22.037Z,59.87
2023-08-23T20:48:50.430Z,59.85
2023-08-23T20:51:18.478Z,59.48
2023-08-23T20:53:46.455Z,59.48
2023-08-23T20:56:16.403Z,59.52
2023-08-23T20:58:44.529Z,59.57
2023-08-23T21:01:13.863Z,59.73
2023-08-23T21:03:42.282Z,59.84
2023-08-23T21:06:10.654Z,59.93
2023-08-23T21:08:38.925Z,60.23
2023-08-23T21:11:06.997Z,60.27
2023-08-23T21:13:35.414Z,60.18
2023-08-23T21:16:03.646Z,60.40
2023-08-23T21:18:31.823Z,60.60
2023-08-23T21:20:59.987Z,60.63
2023-08-23T21:23:29.617Z,60.65
2023-08-23T21:25:57.980Z,60.71
2023-08-23T21:28:26.157Z,60.77
2023-08-23T21:30:54.362Z,60.68
2023-08-23T21:33:23.620Z,60.85
2023-08-23T21:35:52.111Z,60.95
2023-08-23T21:38:20.493Z,60.93
2023-08-23T21:40:59.153Z,60.90
2023-08-23T21:43:28.652Z,61.04
2023-08-23T21:45:56.714Z,60.99
2023-08-23T21:48:25.892Z,60.77
2023-08-23T21:50:53.983Z,60.69
2023-08-23T21:53:22.225Z,60.74
2023-08-23T21:55:57.314Z,60.67
2023-08-23T21:58:30.643Z,60.44
2023-08-23T22:01:03.923Z,60.71
2023-08-23T22:03:33.537Z,60.90
2023-08-23T22:06:07.461Z,60.86
2023-08-23T22:08:40.537Z,60.70
2023-08-23T22:11:12.114Z,60.91
2023-08-23T22:13:43.132Z,60.90
2023-08-23T22:16:12.551Z,60.82
2023-08-23T22:18:41.216Z,60.70
2023-08-23T22:21:11.403Z,60.73
2023-08-23T22:23:39.720Z,61.28
2023-08-23T22:26:07.991Z,61.45
2023-08-23T22:28:36.171Z,61.45
2023-08-23T22:31:04.561Z,61.75
2023-08-23T22:33:32.927Z,62.40
2023-08-23T22:36:01.179Z,62.27
2023-08-23T22:38:29.358Z,62.57
2023-08-23T22:40:57.811Z,62.18
2023-08-23T22:43:26.295Z,62.28
2023-08-23T22:45:55.037Z,62.61
2023-08-23T22:48:23.490Z,62.86
2023-08-23T22:50:52.275Z,63.12
2023-08-23T22:53:20.281Z,63.43
2023-08-23T22:55:48.348Z,64.05
2023-08-23T22:58:16.582Z,64.03
2023-08-23T23:00:44.856Z,64.19
2023-08-23T23:03:13.076Z,64.37
2023-08-23T23:05:41.124Z,64.63
2023-08-23T23:08:09.357Z,64.71
2023-08-23T23:10:37.734Z,64.92
2023-08-23T23:13:06.132Z,65.31
2023-08-23T23:15:34.320Z,65.64
2023-08-23T23:18:02.396Z,65.90
2023-08-23T23:20:30.450Z,65.92
2023-08-23T23:22:58.815Z,65.73
2023-08-23T23:25:26.898Z,65.81
2023-08-23T23:27:55.176Z,66.17
2023-08-23T23:30:23.470Z,66.60
2023-08-23T23:32:52.055Z,67.01
2023-08-23T23:35:20.255Z,66.86
2023-08-23T23:37:49.017Z,66.97
2023-08-23T23:40:17.988Z,66.96
2023-08-23T23:42:46.194Z,67.05
2023-08-23T23:45:34.570Z,67.06
2023-08-23T23:48:03.939Z,67.24
2023-08-23T23:50:33.204Z,67.69
2023-08-23T23:53:01.958Z,67.81
2023-08-23T23:55:30.317Z,67.82
2023-08-23T23:57:58.536Z,68.11
